首页
METAR-TAF:

METAR-TAF

机场 :

皮乌拉, 秘鲁

纬度: 05-11S, 经度: 080-36W, 海拔: 49米

当前天气观测

该预报发布于48分钟前的10:00 UTC
风速5节,风向东南
温度 17°C
湿度 82%
气压 1014 hPa
能见度10公里或以上
多云层高于1300英尺
散云层高于1500英尺

METAR: SPUR 201000Z 14005KT 9999 BKN013 SCT015 17/14 Q1014 RMK PP000

时间: 05:48 (10:48 UTC)

预报

该预报发布于5小时和38分钟前的05:10 UTC
预报有效从20日的 06点(UTC)到 21日的 06点(UTC)
风速6节,风向
能见度10公里或以上
多云层高于2000英尺
成为
从 20日的 09点(UTC)到 20日的 12点(UTC)
多云层高于1100英尺
成为
从 20日的 14点(UTC)到 20日的 16点(UTC)
散云层高于1500英尺
成为
从 20日的 19点(UTC)到 20日的 22点(UTC)
风速12节,风向西转西南
成为
从 21日的 04点(UTC)到 21日的 06点(UTC)
风速6节,风向

TAF: SPUR 200510Z 2006/2106 18006KT 9999 BKN020 TX28/2019Z TN17/2011Z BECMG 2009/2012 BKN011 BECMG 2014/2016 SCT015 BECMG 2019/2022 24012KT BECMG 2104/2106 18006KT

超过4000个机场的气象观测和天气预报(METAR&TAF报告)。

可查询的气象台以黄色和红色小点在地图上表示。

将鼠标移到小点上方,可查看气象台名称。

然后点击查看天气观测和预报。

如需切换地图:点击带黑十字的绿色按钮放大地图;点击带横线的绿色按钮缩小地图;或者点击绿色箭头查看邻近地区的地图。


METAR-TAF: